CheckWX is a tool to help pilots better visualize weather data.  It is not intended as a substitute for an official pre-flight weather briefing.

09:59:24 UTC

EGLF METAR
Farnborough Airport
Farnborough, United Kingdom
Current

39 mins ago

EGLF 310920Z AUTO 06009KT 010V100 9999 NCD 21/10 Q1022
Observed
May-31 @ 09:20 UTC
Wind
  • 060° at 9 KTS
Visibility
10,000+ meters
Flight Rules
VFR
Cloud Levels
  • Clear skies
Temperature
21°C / 70°F
Dewpoint
10°C / 50°F
Humidity
50%
Altimeter
30.18" Hg
Pressure
1021.92 hPa
Previous

1 hour ago

EGLF 310850Z AUTO 05008KT 020V090 9999 NCD 20/10 Q1022
Observed
May-31 @ 08:50 UTC
Wind
  • 050° at 8 KTS
Visibility
10,000+ meters
Flight Rules
VFR
Cloud Levels
  • Clear skies
Temperature
20°C / 68°F
Dewpoint
10°C / 50°F
Humidity
53%
Altimeter
30.18" Hg
Pressure
1021.92 hPa
Previous

2 hours ago

EGLF 310820Z AUTO 07009KT 030V090 9999 NCD 19/10 Q1022
Observed
May-31 @ 08:20 UTC
Wind
  • 070° at 9 KTS
Visibility
10,000+ meters
Flight Rules
VFR
Cloud Levels
  • Clear skies
Temperature
19°C / 66°F
Dewpoint
10°C / 50°F
Humidity
56%
Altimeter
30.18" Hg
Pressure
1021.92 hPa